Terminal Aerodrome Forecast
Issued by NWS Cleveland, OH

Home | Current Version | Previous Version | Graphics & Text | Print | Product List | Glossary On
Versions: 1 2 3 4 5 6 7 8 9 10 11 12 13 14 15 16 17 18
786
FTUS41 KCLE 212322
TAFCAK
TAF
KCAK 212322Z 2200/2224 26005KT P6SM FEW080
     FM221000 VRB03KT P6SM VCTS SCT200CB
     FM221200 16004KT P6SM -SHRA BKN040
      TEMPO 2212/2214 3SM TS OVC025CB
     FM221600 22007KT 5SM -SHRA BR VCTS OVC030CB
     FM222200 29011KT P6SM BKN040=

USA.gov is the U.S. government's official web portal to all federal, state and local government web resources and services.